createdAt,value
2018-03-23T00:01:19.445Z,95.63
2018-03-23T00:03:45.239Z,95.88
2018-03-23T00:06:11.038Z,96.13
2018-03-23T00:08:36.830Z,96.55
2018-03-23T00:11:02.632Z,96.00
2018-03-23T00:13:28.535Z,96.25
2018-03-23T00:15:54.329Z,95.86
2018-03-23T00:18:20.123Z,96.01
2018-03-23T00:20:45.912Z,96.35
2018-03-23T00:23:11.691Z,96.10
2018-03-23T00:25:37.499Z,96.15
2018-03-23T00:28:03.287Z,96.59
2018-03-23T00:30:29.087Z,96.36
2018-03-23T00:32:54.910Z,96.45
2018-03-23T00:35:20.700Z,96.64
2018-03-23T00:37:46.474Z,96.79
2018-03-23T00:40:12.287Z,96.64
2018-03-23T00:42:38.063Z,96.73
2018-03-23T00:45:03.881Z,96.30
2018-03-23T00:47:30.044Z,96.99
2018-03-23T00:49:55.833Z,97.13
2018-03-23T00:52:21.636Z,96.85
2018-03-23T00:54:47.441Z,96.47
2018-03-23T00:57:13.232Z,95.75
2018-03-23T00:59:39.028Z,94.05
2018-03-23T01:02:04.848Z,93.78
2018-03-23T01:04:30.631Z,93.11
2018-03-23T01:06:56.411Z,93.24
2018-03-23T01:09:22.403Z,93.99
2018-03-23T01:11:48.199Z,94.06
2018-03-23T01:14:13.978Z,94.39
2018-03-23T01:16:39.884Z,94.20
2018-03-23T01:19:05.663Z,95.09
2018-03-23T01:21:31.455Z,94.85
2018-03-23T01:23:57.275Z,94.68
2018-03-23T01:26:23.071Z,95.53
2018-03-23T01:28:48.883Z,96.42
2018-03-23T01:31:14.694Z,95.66
2018-03-23T01:33:40.496Z,95.76
2018-03-23T01:36:06.292Z,95.97
2018-03-23T01:38:32.133Z,96.71
2018-03-23T01:40:57.926Z,96.91
2018-03-23T01:43:23.719Z,96.53
2018-03-23T01:45:49.519Z,96.88
2018-03-23T01:48:15.302Z,96.73
2018-03-23T01:50:41.079Z,97.24
2018-03-23T01:53:07.046Z,97.79
2018-03-23T01:55:32.855Z,96.29
2018-03-23T01:57:58.650Z,97.45
2018-03-23T02:00:24.476Z,97.18
2018-03-23T02:02:50.291Z,96.67
2018-03-23T02:05:16.077Z,97.80
2018-03-23T02:07:41.874Z,97.95
2018-03-23T02:10:07.667Z,98.93
2018-03-23T02:12:33.438Z,97.09
2018-03-23T02:14:59.284Z,95.75
2018-03-23T02:17:25.092Z,95.40
2018-03-23T02:19:50.932Z,96.25
2018-03-23T02:22:16.747Z,96.04
2018-03-23T02:24:42.543Z,95.94
2018-03-23T02:27:08.335Z,95.54
2018-03-23T02:29:34.147Z,95.83
2018-03-23T02:31:59.996Z,95.71
2018-03-23T02:34:25.778Z,95.67
2018-03-23T02:36:51.550Z,95.71
2018-03-23T02:39:17.583Z,95.27
2018-03-23T02:41:43.367Z,95.64
2018-03-23T02:44:09.193Z,95.25
2018-03-23T02:46:42.173Z,95.14
2018-03-23T02:49:07.969Z,95.83
2018-03-23T02:51:33.746Z,95.50
2018-03-23T02:53:59.547Z,95.98
2018-03-23T02:56:25.331Z,96.42
2018-03-23T02:58:51.105Z,96.26
2018-03-23T03:01:16.915Z,95.84
2018-03-23T03:03:42.726Z,96.53
2018-03-23T03:06:08.509Z,95.94
2018-03-23T03:08:34.299Z,95.94
2018-03-23T03:11:00.088Z,95.74
2018-03-23T03:13:25.911Z,96.35
2018-03-23T03:15:51.702Z,95.73
2018-03-23T03:18:17.508Z,95.96
2018-03-23T03:20:43.316Z,95.24
2018-03-23T03:23:09.114Z,95.84
2018-03-23T03:25:34.899Z,95.82
2018-03-23T03:28:00.706Z,96.17
2018-03-23T03:30:26.495Z,95.56
2018-03-23T03:32:52.278Z,94.94
2018-03-23T03:35:18.081Z,94.55
2018-03-23T03:37:43.859Z,94.61
2018-03-23T03:40:09.648Z,95.07
2018-03-23T03:42:35.462Z,95.61
2018-03-23T03:45:01.260Z,95.21
2018-03-23T03:47:27.037Z,95.36
2018-03-23T03:49:52.838Z,94.85
2018-03-23T03:52:18.620Z,94.83
2018-03-23T03:54:44.412Z,95.03
2018-03-23T03:57:10.198Z,95.60
2018-03-23T03:59:35.978Z,96.55
2018-03-23T04:02:01.760Z,97.37
2018-03-23T04:04:27.570Z,98.16
2018-03-23T04:06:53.352Z,98.62
2018-03-23T04:09:19.134Z,98.47
2018-03-23T04:11:44.925Z,98.99
2018-03-23T04:14:10.711Z,98.23
2018-03-23T04:16:36.488Z,98.49
2018-03-23T04:19:02.393Z,97.91
2018-03-23T04:21:28.185Z,98.58
2018-03-23T04:23:53.970Z,98.19
2018-03-23T04:26:19.759Z,99.47
2018-03-23T04:28:45.534Z,99.05
2018-03-23T04:31:11.322Z,99.94
2018-03-23T04:33:37.127Z,99.88
2018-03-23T04:36:02.914Z,99.76
2018-03-23T04:38:28.703Z,99.88
2018-03-23T04:40:54.490Z,99.90
2018-03-23T04:43:20.273Z,99.43
2018-03-23T04:45:46.057Z,99.83
2018-03-23T04:48:11.836Z,100.00
2018-03-23T04:50:37.611Z,99.45
2018-03-23T04:53:03.423Z,99.14
2018-03-23T04:55:29.198Z,99.08
2018-03-23T04:57:54.971Z,98.33
2018-03-23T05:00:20.783Z,99.05
2018-03-23T05:02:46.556Z,99.14
2018-03-23T05:05:12.349Z,98.89
2018-03-23T05:07:38.186Z,98.54
2018-03-23T05:10:03.996Z,98.69
2018-03-23T05:12:29.789Z,99.20
2018-03-23T05:14:55.595Z,97.30
2018-03-23T05:17:21.374Z,98.39
2018-03-23T05:19:47.171Z,98.35
2018-03-23T05:22:12.951Z,97.71
2018-03-23T05:24:38.736Z,97.02
2018-03-23T05:27:04.559Z,96.79
2018-03-23T05:29:30.346Z,95.94
2018-03-23T05:31:56.114Z,95.81
2018-03-23T05:34:21.949Z,95.18
2018-03-23T05:36:47.742Z,95.65
2018-03-23T05:39:13.542Z,96.96
2018-03-23T05:41:39.337Z,95.70
2018-03-23T05:44:05.123Z,94.91
2018-03-23T05:49:03.399Z,95.90
2018-03-23T05:51:29.192Z,96.03
2018-03-23T05:53:55.007Z,88.92
2018-03-23T05:56:20.800Z,90.40
2018-03-23T05:58:46.590Z,89.94
2018-03-23T06:01:12.392Z,90.41
2018-03-23T06:03:38.175Z,92.38
2018-03-23T06:06:03.961Z,93.14
2018-03-23T06:08:29.758Z,93.56
2018-03-23T06:10:55.563Z,94.28
2018-03-23T06:13:21.355Z,95.01
2018-03-23T06:15:47.160Z,94.81
2018-03-23T06:18:12.943Z,94.63
2018-03-23T06:20:38.731Z,92.26
2018-03-23T06:23:04.634Z,94.02
2018-03-23T06:25:30.418Z,94.20
2018-03-23T06:27:56.242Z,94.73
2018-03-23T06:30:22.025Z,95.71
2018-03-23T06:32:47.799Z,95.06
2018-03-23T06:35:13.587Z,94.57
2018-03-23T06:37:39.411Z,93.71
2018-03-23T06:40:05.206Z,90.35
2018-03-23T06:42:30.991Z,91.85
2018-03-23T06:44:56.805Z,93.30
2018-03-23T06:47:22.599Z,93.71
2018-03-23T06:49:48.385Z,91.96
2018-03-23T06:52:14.176Z,91.64
2018-03-23T06:54:39.955Z,92.37
2018-03-23T06:57:05.749Z,93.03
2018-03-23T06:59:31.553Z,93.91
2018-03-23T07:01:57.331Z,94.12
2018-03-23T07:04:23.241Z,93.51
2018-03-23T07:06:49.023Z,94.73
2018-03-23T07:09:14.811Z,94.53
2018-03-23T07:11:40.634Z,94.02
2018-03-23T07:14:06.426Z,96.18
2018-03-23T07:16:32.210Z,94.85
2018-03-23T07:18:58.007Z,93.86
2018-03-23T07:21:23.808Z,94.58
2018-03-23T07:23:50.489Z,93.33
2018-03-23T07:26:17.968Z,95.63
2018-03-23T07:28:44.292Z,89.18
2018-03-23T07:31:11.822Z,91.01
2018-03-23T07:33:39.205Z,91.14
2018-03-23T07:36:06.130Z,88.26
2018-03-23T07:38:32.487Z,88.57
2018-03-23T07:40:59.270Z,89.52
2018-03-23T07:43:25.072Z,90.44
2018-03-23T07:45:52.763Z,90.15
2018-03-23T07:48:19.090Z,89.81
2018-03-23T07:50:44.882Z,90.66
2018-03-23T07:53:11.066Z,90.42
2018-03-23T07:55:37.476Z,90.14
2018-03-23T07:58:03.263Z,89.21
2018-03-23T08:00:29.060Z,90.11
2018-03-23T08:02:54.879Z,91.09
2018-03-23T08:05:20.688Z,89.82
2018-03-23T08:07:47.442Z,90.06
2018-03-23T08:10:13.275Z,89.96
2018-03-23T08:12:39.083Z,90.05
2018-03-23T08:15:05.408Z,90.14
2018-03-23T08:17:31.242Z,89.13
2018-03-23T08:19:57.040Z,88.77
2018-03-23T08:22:22.844Z,89.52
2018-03-23T08:24:48.720Z,89.71
2018-03-23T08:27:14.523Z,89.11
2018-03-23T08:29:40.832Z,88.89
2018-03-23T08:32:06.660Z,89.87
2018-03-23T08:34:33.335Z,89.88
2018-03-23T08:36:59.123Z,89.15
2018-03-23T08:39:24.957Z,88.74
2018-03-23T08:41:51.363Z,88.97
2018-03-23T08:44:17.160Z,89.27
2018-03-23T08:46:43.174Z,89.19
2018-03-23T08:49:08.984Z,88.60
2018-03-23T08:51:35.577Z,88.75
2018-03-23T08:54:01.422Z,87.48
2018-03-23T08:56:27.217Z,87.77
2018-03-23T08:58:52.995Z,86.05
2018-03-23T09:01:18.787Z,86.31
2018-03-23T09:03:44.575Z,85.87
2018-03-23T09:06:12.775Z,87.20
2018-03-23T09:08:38.914Z,87.21
2018-03-23T09:11:04.709Z,87.02
2018-03-23T09:13:30.502Z,86.46
2018-03-23T09:15:56.476Z,85.62
2018-03-23T09:18:22.281Z,85.40
2018-03-23T09:20:48.080Z,85.02
2018-03-23T09:23:13.895Z,85.18
2018-03-23T09:25:39.674Z,84.97
2018-03-23T09:28:05.488Z,86.52
2018-03-23T09:30:31.308Z,85.84
2018-03-23T09:32:57.131Z,82.92
2018-03-23T09:35:22.931Z,83.77
2018-03-23T09:37:48.740Z,83.76
2018-03-23T09:40:14.555Z,83.90
2018-03-23T09:42:40.341Z,84.86
2018-03-23T09:45:06.154Z,85.09
2018-03-23T09:47:31.947Z,84.21
2018-03-23T09:49:57.838Z,83.07
2018-03-23T09:52:23.647Z,83.90
2018-03-23T09:54:49.438Z,83.93
2018-03-23T09:57:15.629Z,84.23
2018-03-23T09:59:41.390Z,83.62
2018-03-23T10:02:07.168Z,82.81
2018-03-23T10:04:33.006Z,83.88
2018-03-23T10:06:58.793Z,83.55
2018-03-23T10:09:24.588Z,82.91
2018-03-23T10:11:50.404Z,81.71
2018-03-23T10:14:16.370Z,82.53
2018-03-23T10:16:49.057Z,80.80
2018-03-23T10:19:14.902Z,80.22
2018-03-23T10:21:40.743Z,80.52
2018-03-23T10:24:06.490Z,80.09
2018-03-23T10:26:32.566Z,79.19
2018-03-23T10:28:58.381Z,81.50
2018-03-23T10:31:24.147Z,81.13
2018-03-23T10:33:49.932Z,81.57
2018-03-23T10:36:15.719Z,80.73
2018-03-23T10:38:41.568Z,81.06
2018-03-23T10:41:07.384Z,79.00
2018-03-23T10:43:33.186Z,79.91
2018-03-23T10:45:58.992Z,80.94
2018-03-23T10:48:24.771Z,79.96
2018-03-23T10:50:50.633Z,78.65
2018-03-23T10:53:16.443Z,79.69
2018-03-23T10:55:42.232Z,81.92
2018-03-23T10:58:08.051Z,80.32
2018-03-23T11:00:40.074Z,79.88
2018-03-23T11:03:05.854Z,80.08
2018-03-23T11:05:32.007Z,85.92
2018-03-23T11:08:04.811Z,78.61
2018-03-23T11:10:30.594Z,77.24
2018-03-23T11:12:56.396Z,76.08
2018-03-23T11:15:22.194Z,73.44
2018-03-23T11:17:47.990Z,76.24
2018-03-23T11:20:13.770Z,79.64
2018-03-23T11:22:39.590Z,77.24
2018-03-23T11:25:05.405Z,69.16
2018-03-23T11:27:31.179Z,77.05
2018-03-23T11:29:56.984Z,68.78
2018-03-23T11:32:22.879Z,74.35
2018-03-23T11:34:48.666Z,76.01
2018-03-23T11:37:14.442Z,77.96
2018-03-23T11:39:40.256Z,76.00
2018-03-23T11:42:06.035Z,75.87
2018-03-23T11:44:31.806Z,76.05
2018-03-23T11:46:57.615Z,76.47
2018-03-23T11:49:23.394Z,72.58
2018-03-23T11:51:49.183Z,68.58
2018-03-23T11:54:15.188Z,71.71
2018-03-23T11:56:40.985Z,68.03
2018-03-23T11:59:06.882Z,70.00
2018-03-23T12:01:32.710Z,70.59
2018-03-23T12:03:58.498Z,69.76
2018-03-23T12:06:24.283Z,73.00
2018-03-23T12:08:50.314Z,74.10
2018-03-23T12:11:16.126Z,74.54
2018-03-23T12:13:41.907Z,73.45
2018-03-23T12:16:07.936Z,74.14
2018-03-23T12:18:33.716Z,73.82
2018-03-23T12:20:59.501Z,71.65
2018-03-23T12:23:25.312Z,70.79
2018-03-23T12:25:51.099Z,70.84
2018-03-23T12:28:16.871Z,71.09
2018-03-23T12:30:42.693Z,69.92
2018-03-23T12:33:08.463Z,71.43
2018-03-23T12:35:34.247Z,69.81
2018-03-23T12:38:00.120Z,69.80
2018-03-23T12:40:25.867Z,69.39
2018-03-23T12:42:51.655Z,70.29
2018-03-23T12:45:17.699Z,71.45
2018-03-23T12:47:43.530Z,71.18
2018-03-23T12:50:09.369Z,71.44
2018-03-23T12:52:35.136Z,72.10
2018-03-23T12:55:00.934Z,71.57
2018-03-23T12:57:26.712Z,71.40
2018-03-23T12:59:52.523Z,71.82
2018-03-23T13:02:18.310Z,71.58
2018-03-23T13:04:44.087Z,72.79
2018-03-23T13:07:09.881Z,73.37
2018-03-23T13:09:35.663Z,72.33
2018-03-23T13:12:01.444Z,72.80
2018-03-23T13:14:27.238Z,73.68
2018-03-23T13:16:53.075Z,73.62
2018-03-23T13:19:18.846Z,74.23
2018-03-23T13:21:44.641Z,74.67
2018-03-23T13:24:10.459Z,74.83
2018-03-23T13:26:36.251Z,74.14
2018-03-23T13:29:02.045Z,73.49
2018-03-23T13:31:27.846Z,74.33
2018-03-23T13:33:53.622Z,74.41
2018-03-23T13:36:19.398Z,74.17
2018-03-23T13:38:45.215Z,75.31
2018-03-23T13:41:11.034Z,75.63
2018-03-23T13:43:36.913Z,75.74
2018-03-23T13:46:02.700Z,75.07
2018-03-23T13:48:28.501Z,75.39
2018-03-23T13:50:54.288Z,75.46
2018-03-23T13:53:20.076Z,76.62
2018-03-23T13:55:45.872Z,75.29
2018-03-23T13:58:11.656Z,75.08
2018-03-23T14:00:43.411Z,75.77
2018-03-23T14:03:09.203Z,76.04
2018-03-23T14:05:34.991Z,75.94
2018-03-23T14:08:00.811Z,76.28
2018-03-23T14:10:26.588Z,76.64
2018-03-23T14:12:52.379Z,76.74
2018-03-23T14:15:18.194Z,77.14
2018-03-23T14:17:44.007Z,77.87
2018-03-23T14:20:09.800Z,77.42
2018-03-23T14:22:35.626Z,77.98
2018-03-23T14:25:01.419Z,78.16
2018-03-23T14:27:27.225Z,78.17
2018-03-23T14:29:53.020Z,78.29
2018-03-23T14:32:18.847Z,78.56
2018-03-23T14:34:44.638Z,78.59
2018-03-23T14:37:10.428Z,78.45
2018-03-23T14:39:36.227Z,78.08
2018-03-23T14:42:02.030Z,78.26
2018-03-23T14:44:27.921Z,78.79
2018-03-23T14:46:53.774Z,78.68
2018-03-23T14:49:19.504Z,78.33
2018-03-23T14:51:45.513Z,78.72
2018-03-23T14:54:11.320Z,78.62
2018-03-23T14:56:37.111Z,77.74
2018-03-23T14:59:09.104Z,78.31
2018-03-23T15:01:34.839Z,78.61
2018-03-23T15:04:01.050Z,78.50
2018-03-23T15:06:26.834Z,78.50
2018-03-23T15:08:52.628Z,78.34
2018-03-23T15:11:18.439Z,78.15
2018-03-23T15:13:44.232Z,78.24
2018-03-23T15:16:10.024Z,80.69
2018-03-23T15:18:35.949Z,85.18
2018-03-23T15:21:01.764Z,76.83
2018-03-23T15:23:27.569Z,77.46
2018-03-23T15:25:53.379Z,78.07
2018-03-23T15:28:19.178Z,77.94
2018-03-23T15:30:45.039Z,78.48
2018-03-23T15:33:10.852Z,79.85
2018-03-23T15:35:37.303Z,78.76
2018-03-23T15:38:03.163Z,77.23
2018-03-23T15:40:29.011Z,81.78
2018-03-23T15:42:54.959Z,76.34
2018-03-23T15:45:20.809Z,76.74
2018-03-23T15:47:46.681Z,77.06
2018-03-23T15:50:12.536Z,77.87
2018-03-23T15:52:38.452Z,78.19
2018-03-23T15:55:04.337Z,78.57
2018-03-23T15:57:30.174Z,78.29
2018-03-23T15:59:55.997Z,78.35
2018-03-23T16:02:21.832Z,78.55
2018-03-23T16:04:48.590Z,78.37
2018-03-23T16:07:14.391Z,78.43
2018-03-23T16:09:40.218Z,78.71
2018-03-23T16:12:06.026Z,78.80
2018-03-23T16:14:31.831Z,78.89
2018-03-23T16:16:57.858Z,78.93
2018-03-23T16:19:23.696Z,78.90
2018-03-23T16:21:49.550Z,79.04
2018-03-23T16:24:16.048Z,78.61
2018-03-23T16:26:41.896Z,78.80
2018-03-23T16:29:07.694Z,79.31
2018-03-23T16:31:33.497Z,79.72
2018-03-23T16:33:59.330Z,79.99
2018-03-23T16:36:25.418Z,85.70
2018-03-23T16:38:51.205Z,85.71
2018-03-23T16:41:17.126Z,72.94
2018-03-23T16:43:43.123Z,75.85
2018-03-23T16:46:08.914Z,77.17
2018-03-23T16:48:34.997Z,78.92
2018-03-23T16:51:00.826Z,78.70
2018-03-23T16:53:26.807Z,78.61
2018-03-23T16:55:53.555Z,80.10
2018-03-23T16:58:19.450Z,81.47
2018-03-23T17:00:45.234Z,78.41
2018-03-23T17:03:11.043Z,80.86
2018-03-23T17:05:36.843Z,81.97
2018-03-23T17:08:02.672Z,81.13
2018-03-23T17:10:28.483Z,80.71
2018-03-23T17:12:54.283Z,80.73
2018-03-23T17:15:20.083Z,81.24
2018-03-23T17:17:45.911Z,81.40
2018-03-23T17:20:11.825Z,81.82
2018-03-23T17:22:37.634Z,80.59
2018-03-23T17:25:03.627Z,81.41
2018-03-23T17:27:29.412Z,80.66
2018-03-23T17:29:55.190Z,80.89
2018-03-23T17:32:21.012Z,80.35
2018-03-23T17:34:46.794Z,81.32
2018-03-23T17:37:12.579Z,80.33
2018-03-23T17:39:38.435Z,81.52
2018-03-23T17:42:04.215Z,81.04
2018-03-23T17:44:30.015Z,81.93
2018-03-23T17:46:55.823Z,81.24
2018-03-23T17:49:21.597Z,81.42
2018-03-23T17:51:47.414Z,81.49
2018-03-23T17:54:13.211Z,81.79
2018-03-23T17:56:39.018Z,81.25
2018-03-23T17:59:04.812Z,81.23
2018-03-23T18:01:30.608Z,81.31
2018-03-23T18:03:56.399Z,81.15
2018-03-23T18:06:22.201Z,81.01
2018-03-23T18:08:47.963Z,81.51
2018-03-23T18:11:13.848Z,80.96
2018-03-23T18:13:39.638Z,81.04
2018-03-23T18:16:05.444Z,81.25
2018-03-23T18:18:31.271Z,81.35
2018-03-23T18:20:57.079Z,81.54
2018-03-23T18:23:22.872Z,81.95
2018-03-23T18:25:48.716Z,81.98
2018-03-23T18:28:14.503Z,81.93
2018-03-23T18:30:40.275Z,82.29
2018-03-23T18:33:06.081Z,82.64
2018-03-23T18:35:31.896Z,82.73
2018-03-23T18:37:57.700Z,82.53
2018-03-23T18:40:23.482Z,82.79
2018-03-23T18:42:49.275Z,83.13
2018-03-23T18:45:15.105Z,83.41
2018-03-23T18:47:40.891Z,84.53
2018-03-23T18:50:06.699Z,85.25
2018-03-23T18:52:32.536Z,86.60
2018-03-23T18:54:58.325Z,86.00
2018-03-23T18:57:24.106Z,85.85
2018-03-23T18:59:49.940Z,86.34
2018-03-23T19:02:15.738Z,86.07
2018-03-23T19:04:41.546Z,86.64
2018-03-23T19:07:07.319Z,86.30
2018-03-23T19:09:33.128Z,86.72
2018-03-23T19:11:58.928Z,87.64
2018-03-23T19:14:24.807Z,87.55
2018-03-23T19:16:50.643Z,87.95
2018-03-23T19:19:17.857Z,87.99
2018-03-23T19:21:44.644Z,87.16
2018-03-23T19:24:10.456Z,87.26
2018-03-23T19:26:36.828Z,86.40
2018-03-23T19:29:02.679Z,86.17
2018-03-23T19:31:28.472Z,86.28
2018-03-23T19:33:54.277Z,86.27
2018-03-23T19:36:20.110Z,86.58
2018-03-23T19:38:46.105Z,86.21
2018-03-23T19:41:11.899Z,85.67
2018-03-23T19:43:37.796Z,85.63
2018-03-23T19:46:03.612Z,85.98
2018-03-23T19:48:29.423Z,85.82
2018-03-23T19:50:55.231Z,85.04
2018-03-23T19:53:21.244Z,85.33
2018-03-23T19:55:47.199Z,85.68
2018-03-23T19:58:13.056Z,85.55
2018-03-23T20:00:38.844Z,84.99
2018-03-23T20:03:05.191Z,85.20
2018-03-23T20:05:31.085Z,85.73
2018-03-23T20:07:56.880Z,85.59
2018-03-23T20:10:22.986Z,85.65
2018-03-23T20:12:48.804Z,86.57
2018-03-23T20:15:14.596Z,92.93
2018-03-23T20:17:46.416Z,80.68
2018-03-23T20:20:18.595Z,90.15
2018-03-23T20:22:44.816Z,80.82
2018-03-23T20:25:10.980Z,81.68
2018-03-23T20:27:42.898Z,81.82
2018-03-23T20:30:08.988Z,75.89
2018-03-23T20:32:34.787Z,84.03
2018-03-23T20:35:00.621Z,74.90
2018-03-23T20:37:26.493Z,75.83
2018-03-23T20:39:52.296Z,77.93
2018-03-23T20:42:18.104Z,74.44
2018-03-23T20:44:44.436Z,77.25
2018-03-23T20:47:10.282Z,77.91
2018-03-23T20:49:36.094Z,81.59
2018-03-23T20:52:02.029Z,82.92
2018-03-23T20:54:27.845Z,83.07
2018-03-23T20:56:54.561Z,83.78
2018-03-23T20:59:21.408Z,84.52
2018-03-23T21:01:48.177Z,84.11
2018-03-23T21:04:14.052Z,84.16
2018-03-23T21:06:40.870Z,84.37
2018-03-23T21:09:06.715Z,84.49
2018-03-23T21:11:32.535Z,84.76
2018-03-23T21:13:58.360Z,85.65
2018-03-23T21:16:24.535Z,85.99
2018-03-23T21:18:50.357Z,86.12
2018-03-23T21:21:17.334Z,86.48
2018-03-23T21:23:43.284Z,86.06
2018-03-23T21:26:09.103Z,85.50
2018-03-23T21:28:34.900Z,86.25
2018-03-23T21:31:01.785Z,86.11
2018-03-23T21:33:27.636Z,86.78
2018-03-23T21:35:53.479Z,86.54
2018-03-23T21:38:19.308Z,85.71
2018-03-23T21:40:45.241Z,86.35
2018-03-23T21:43:12.022Z,86.32
2018-03-23T21:45:37.868Z,86.49
2018-03-23T21:48:03.679Z,86.63
2018-03-23T21:50:30.293Z,86.63
2018-03-23T21:52:58.084Z,86.82
2018-03-23T21:55:23.908Z,86.92
2018-03-23T21:57:49.692Z,87.27
2018-03-23T22:00:15.504Z,87.01
2018-03-23T22:02:48.157Z,87.13
2018-03-23T22:05:13.970Z,86.82
2018-03-23T22:07:39.779Z,87.10
2018-03-23T22:10:05.567Z,87.56
2018-03-23T22:12:31.359Z,87.16
2018-03-23T22:14:58.205Z,86.83
2018-03-23T22:17:24.085Z,87.69
2018-03-23T22:19:49.903Z,90.30
2018-03-23T22:22:16.358Z,88.38
2018-03-23T22:24:42.205Z,80.32
2018-03-23T22:27:08.986Z,83.87
2018-03-23T22:29:35.063Z,85.65
2018-03-23T22:32:01.802Z,85.34
2018-03-23T22:34:27.592Z,85.70
2018-03-23T22:36:53.520Z,86.57
2018-03-23T22:39:19.333Z,86.69
2018-03-23T22:41:45.774Z,86.07
2018-03-23T22:44:11.579Z,86.23
2018-03-23T22:46:37.546Z,85.78
2018-03-23T22:49:03.373Z,85.87
2018-03-23T22:51:29.320Z,86.09
2018-03-23T22:53:55.489Z,86.48
2018-03-23T22:56:21.301Z,87.00
2018-03-23T22:58:47.750Z,84.46
2018-03-23T23:01:13.667Z,85.64
2018-03-23T23:03:39.456Z,87.26
2018-03-23T23:06:05.273Z,86.09
2018-03-23T23:08:31.098Z,85.06
2018-03-23T23:10:56.952Z,84.66
2018-03-23T23:13:22.746Z,85.75
2018-03-23T23:15:48.590Z,85.94
2018-03-23T23:18:14.400Z,84.63
2018-03-23T23:20:41.964Z,85.33
2018-03-23T23:23:07.979Z,85.13
2018-03-23T23:25:33.800Z,83.88
2018-03-23T23:27:59.648Z,84.43
2018-03-23T23:30:25.463Z,85.03
2018-03-23T23:32:51.257Z,84.58
2018-03-23T23:35:17.062Z,84.39
2018-03-23T23:37:42.847Z,83.98
2018-03-23T23:40:08.672Z,84.68
2018-03-23T23:42:35.104Z,86.40
2018-03-23T23:45:00.912Z,84.61
2018-03-23T23:47:26.880Z,83.99
2018-03-23T23:49:52.659Z,86.93
2018-03-23T23:52:18.442Z,84.14
2018-03-23T23:54:44.259Z,84.79
2018-03-23T23:57:10.040Z,83.22
2018-03-23T23:59:35.817Z,84.31
